sensor_id;sensor_type;location;lat;lon;timestamp;P1;durP1;ratioP1;P2;durP2;ratioP2
3867;SDS011;1949;48.152;11.528;2023-03-01T00:01:39;19.37;;;8.43;;
3867;SDS011;1949;48.152;11.528;2023-03-01T00:06:34;18.03;;;8.40;;
3867;SDS011;1949;48.152;11.528;2023-03-01T00:11:29;21.47;;;9.20;;
3867;SDS011;1949;48.152;11.528;2023-03-01T00:13:59;20.57;;;9.70;;
3867;SDS011;1949;48.152;11.528;2023-03-01T00:16:31;18.30;;;7.90;;
3867;SDS011;1949;48.152;11.528;2023-03-01T00:18:59;24.10;;;8.80;;
3867;SDS011;1949;48.152;11.528;2023-03-01T00:21:32;14.60;;;7.50;;
3867;SDS011;1949;48.152;11.528;2023-03-01T00:24:00;22.00;;;7.77;;
3867;SDS011;1949;48.152;11.528;2023-03-01T00:26:27;27.80;;;8.63;;
3867;SDS011;1949;48.152;11.528;2023-03-01T00:29:03;15.40;;;8.10;;
3867;SDS011;1949;48.152;11.528;2023-03-01T00:31:31;23.43;;;8.80;;
3867;SDS011;1949;48.152;11.528;2023-03-01T00:33:59;15.13;;;8.30;;
3867;SDS011;1949;48.152;11.528;2023-03-01T00:36:34;21.27;;;9.20;;
3867;SDS011;1949;48.152;11.528;2023-03-01T00:39:02;21.10;;;9.87;;
3867;SDS011;1949;48.152;11.528;2023-03-01T00:41:29;17.93;;;8.23;;
3867;SDS011;1949;48.152;11.528;2023-03-01T00:44:02;17.40;;;7.90;;
3867;SDS011;1949;48.152;11.528;2023-03-01T00:46:28;17.10;;;8.77;;
3867;SDS011;1949;48.152;11.528;2023-03-01T00:48:55;18.70;;;8.73;;
3867;SDS011;1949;48.152;11.528;2023-03-01T00:51:22;17.80;;;8.30;;
3867;SDS011;1949;48.152;11.528;2023-03-01T00:53:54;16.87;;;8.57;;
3867;SDS011;1949;48.152;11.528;2023-03-01T00:56:22;20.57;;;8.87;;
3867;SDS011;1949;48.152;11.528;2023-03-01T00:58:48;23.07;;;8.77;;
3867;SDS011;1949;48.152;11.528;2023-03-01T01:01:24;17.20;;;9.00;;
3867;SDS011;1949;48.152;11.528;2023-03-01T01:06:36;19.07;;;9.23;;
3867;SDS011;1949;48.152;11.528;2023-03-01T01:09:19;15.73;;;8.23;;
3867;SDS011;1949;48.152;11.528;2023-03-01T01:11:46;15.67;;;8.93;;
3867;SDS011;1949;48.152;11.528;2023-03-01T01:14:14;16.17;;;8.30;;
3867;SDS011;1949;48.152;11.528;2023-03-01T01:16:40;20.20;;;9.23;;
3867;SDS011;1949;48.152;11.528;2023-03-01T01:19:06;12.30;;;6.93;;
3867;SDS011;1949;48.152;11.528;2023-03-01T01:21:34;16.07;;;7.97;;
3867;SDS011;1949;48.152;11.528;2023-03-01T01:24:02;21.40;;;8.77;;
3867;SDS011;1949;48.152;11.528;2023-03-01T01:26:29;13.90;;;7.27;;
3867;SDS011;1949;48.152;11.528;2023-03-01T01:28:57;20.63;;;8.90;;
3867;SDS011;1949;48.152;11.528;2023-03-01T01:31:24;16.63;;;8.10;;
3867;SDS011;1949;48.152;11.528;2023-03-01T01:33:51;25.37;;;8.90;;
3867;SDS011;1949;48.152;11.528;2023-03-01T01:36:20;21.57;;;9.10;;
3867;SDS011;1949;48.152;11.528;2023-03-01T01:38:46;26.17;;;7.93;;
3867;SDS011;1949;48.152;11.528;2023-03-01T01:41:12;13.50;;;7.27;;
3867;SDS011;1949;48.152;11.528;2023-03-01T01:43:43;18.00;;;8.40;;
3867;SDS011;1949;48.152;11.528;2023-03-01T01:46:15;13.50;;;7.83;;
3867;SDS011;1949;48.152;11.528;2023-03-01T01:48:43;19.60;;;8.77;;
3867;SDS011;1949;48.152;11.528;2023-03-01T01:51:35;19.47;;;9.10;;
3867;SDS011;1949;48.152;11.528;2023-03-01T01:54:15;17.77;;;8.67;;
3867;SDS011;1949;48.152;11.528;2023-03-01T01:56:47;17.37;;;8.63;;
3867;SDS011;1949;48.152;11.528;2023-03-01T01:59:23;14.83;;;7.77;;
3867;SDS011;1949;48.152;11.528;2023-03-01T02:01:55;19.50;;;8.53;;
3867;SDS011;1949;48.152;11.528;2023-03-01T02:04:24;17.47;;;8.70;;
3867;SDS011;1949;48.152;11.528;2023-03-01T02:07:23;19.77;;;8.17;;
3867;SDS011;1949;48.152;11.528;2023-03-01T02:09:48;21.00;;;8.60;;
3867;SDS011;1949;48.152;11.528;2023-03-01T02:12:17;18.23;;;7.83;;
3867;SDS011;1949;48.152;11.528;2023-03-01T02:14:46;16.87;;;7.67;;
3867;SDS011;1949;48.152;11.528;2023-03-01T02:17:12;20.03;;;8.80;;
3867;SDS011;1949;48.152;11.528;2023-03-01T02:22:47;23.17;;;8.30;;
3867;SDS011;1949;48.152;11.528;2023-03-01T02:25:31;16.80;;;8.00;;
3867;SDS011;1949;48.152;11.528;2023-03-01T02:30:47;19.77;;;8.40;;
3867;SDS011;1949;48.152;11.528;2023-03-01T02:33:34;15.67;;;7.90;;
3867;SDS011;1949;48.152;11.528;2023-03-01T02:36:04;21.63;;;8.47;;
3867;SDS011;1949;48.152;11.528;2023-03-01T02:38:37;21.90;;;8.80;;
3867;SDS011;1949;48.152;11.528;2023-03-01T02:41:03;16.80;;;7.50;;
3867;SDS011;1949;48.152;11.528;2023-03-01T02:43:31;13.70;;;7.23;;
3867;SDS011;1949;48.152;11.528;2023-03-01T02:45:59;32.83;;;9.43;;
3867;SDS011;1949;48.152;11.528;2023-03-01T02:48:40;15.00;;;7.37;;
3867;SDS011;1949;48.152;11.528;2023-03-01T02:56:42;15.37;;;7.67;;
3867;SDS011;1949;48.152;11.528;2023-03-01T02:59:10;18.53;;;8.97;;
3867;SDS011;1949;48.152;11.528;2023-03-01T03:01:37;18.07;;;8.27;;
3867;SDS011;1949;48.152;11.528;2023-03-01T03:04:04;19.27;;;8.87;;
3867;SDS011;1949;48.152;11.528;2023-03-01T03:06:44;15.57;;;7.83;;
3867;SDS011;1949;48.152;11.528;2023-03-01T03:09:19;14.33;;;7.60;;
3867;SDS011;1949;48.152;11.528;2023-03-01T03:12:01;16.20;;;7.30;;
3867;SDS011;1949;48.152;11.528;2023-03-01T03:19:35;15.10;;;7.90;;
3867;SDS011;1949;48.152;11.528;2023-03-01T03:22:01;19.30;;;8.97;;
3867;SDS011;1949;48.152;11.528;2023-03-01T03:24:27;15.50;;;8.73;;
3867;SDS011;1949;48.152;11.528;2023-03-01T03:27:03;16.20;;;7.40;;
3867;SDS011;1949;48.152;11.528;2023-03-01T03:29:35;18.17;;;8.23;;
3867;SDS011;1949;48.152;11.528;2023-03-01T03:32:00;21.03;;;10.60;;
3867;SDS011;1949;48.152;11.528;2023-03-01T03:36:56;17.83;;;8.17;;
3867;SDS011;1949;48.152;11.528;2023-03-01T03:39:25;28.70;;;10.47;;
3867;SDS011;1949;48.152;11.528;2023-03-01T03:42:00;24.07;;;10.73;;
3867;SDS011;1949;48.152;11.528;2023-03-01T03:44:26;18.43;;;9.20;;
3867;SDS011;1949;48.152;11.528;2023-03-01T03:46:54;19.40;;;9.30;;
3867;SDS011;1949;48.152;11.528;2023-03-01T03:51:49;15.57;;;8.07;;
3867;SDS011;1949;48.152;11.528;2023-03-01T03:54:15;19.23;;;9.20;;
3867;SDS011;1949;48.152;11.528;2023-03-01T03:56:42;15.73;;;8.07;;
3867;SDS011;1949;48.152;11.528;2023-03-01T03:59:11;19.33;;;8.53;;
3867;SDS011;1949;48.152;11.528;2023-03-01T04:01:36;19.20;;;8.80;;
3867;SDS011;1949;48.152;11.528;2023-03-01T04:04:03;23.73;;;9.10;;
3867;SDS011;1949;48.152;11.528;2023-03-01T04:06:31;19.93;;;8.37;;
3867;SDS011;1949;48.152;11.528;2023-03-01T04:08:56;17.93;;;7.90;;
3867;SDS011;1949;48.152;11.528;2023-03-01T04:11:25;16.47;;;8.00;;
3867;SDS011;1949;48.152;11.528;2023-03-01T04:13:55;20.63;;;8.73;;
3867;SDS011;1949;48.152;11.528;2023-03-01T04:16:28;15.60;;;8.27;;
3867;SDS011;1949;48.152;11.528;2023-03-01T04:18:58;19.37;;;8.00;;
3867;SDS011;1949;48.152;11.528;2023-03-01T04:21:29;16.37;;;8.40;;
3867;SDS011;1949;48.152;11.528;2023-03-01T04:23:57;21.23;;;9.93;;
3867;SDS011;1949;48.152;11.528;2023-03-01T04:26:23;18.67;;;9.23;;
3867;SDS011;1949;48.152;11.528;2023-03-01T04:28:57;20.30;;;8.33;;
3867;SDS011;1949;48.152;11.528;2023-03-01T04:31:23;22.50;;;8.63;;
3867;SDS011;1949;48.152;11.528;2023-03-01T04:33:56;20.00;;;8.73;;
3867;SDS011;1949;48.152;11.528;2023-03-01T04:36:23;17.77;;;8.50;;
3867;SDS011;1949;48.152;11.528;2023-03-01T04:38:54;18.37;;;8.57;;
3867;SDS011;1949;48.152;11.528;2023-03-01T04:41:21;35.97;;;13.17;;
3867;SDS011;1949;48.152;11.528;2023-03-01T04:43:50;18.50;;;9.30;;
3867;SDS011;1949;48.152;11.528;2023-03-01T04:48:48;43.83;;;17.80;;
3867;SDS011;1949;48.152;11.528;2023-03-01T04:51:15;25.50;;;10.73;;
3867;SDS011;1949;48.152;11.528;2023-03-01T04:53:41;20.17;;;10.43;;
3867;SDS011;1949;48.152;11.528;2023-03-01T04:56:10;24.07;;;11.10;;
3867;SDS011;1949;48.152;11.528;2023-03-01T05:01:11;24.70;;;11.67;;
3867;SDS011;1949;48.152;11.528;2023-03-01T05:03:42;31.00;;;12.37;;
3867;SDS011;1949;48.152;11.528;2023-03-01T05:06:09;23.23;;;10.67;;
3867;SDS011;1949;48.152;11.528;2023-03-01T05:08:36;31.00;;;10.87;;
3867;SDS011;1949;48.152;11.528;2023-03-01T05:11:04;29.87;;;12.30;;
3867;SDS011;1949;48.152;11.528;2023-03-01T05:13:30;29.70;;;12.70;;
3867;SDS011;1949;48.152;11.528;2023-03-01T05:15:57;43.53;;;12.07;;
3867;SDS011;1949;48.152;11.528;2023-03-01T05:18:26;25.23;;;11.10;;
3867;SDS011;1949;48.152;11.528;2023-03-01T05:20:53;30.90;;;11.07;;
3867;SDS011;1949;48.152;11.528;2023-03-01T05:23:21;24.10;;;10.60;;
3867;SDS011;1949;48.152;11.528;2023-03-01T05:25:47;32.07;;;12.33;;
3867;SDS011;1949;48.152;11.528;2023-03-01T05:28:14;26.57;;;12.37;;
3867;SDS011;1949;48.152;11.528;2023-03-01T05:30:41;29.13;;;12.90;;
3867;SDS011;1949;48.152;11.528;2023-03-01T05:33:08;25.63;;;12.30;;
3867;SDS011;1949;48.152;11.528;2023-03-01T05:35:42;31.67;;;12.50;;
3867;SDS011;1949;48.152;11.528;2023-03-01T05:38:10;30.83;;;13.67;;
3867;SDS011;1949;48.152;11.528;2023-03-01T05:40:43;28.70;;;11.60;;
3867;SDS011;1949;48.152;11.528;2023-03-01T05:43:12;32.63;;;14.33;;
3867;SDS011;1949;48.152;11.528;2023-03-01T05:45:40;39.30;;;15.03;;
3867;SDS011;1949;48.152;11.528;2023-03-01T05:48:07;33.57;;;13.83;;
3867;SDS011;1949;48.152;11.528;2023-03-01T05:50:37;30.73;;;13.73;;
3867;SDS011;1949;48.152;11.528;2023-03-01T05:53:05;34.73;;;15.10;;
3867;SDS011;1949;48.152;11.528;2023-03-01T05:58:09;34.73;;;12.23;;
3867;SDS011;1949;48.152;11.528;2023-03-01T06:00:36;30.43;;;14.23;;
3867;SDS011;1949;48.152;11.528;2023-03-01T06:03:02;32.37;;;13.30;;
3867;SDS011;1949;48.152;11.528;2023-03-01T06:05:29;33.60;;;13.43;;
3867;SDS011;1949;48.152;11.528;2023-03-01T06:07:55;31.50;;;13.17;;
3867;SDS011;1949;48.152;11.528;2023-03-01T06:10:25;36.83;;;14.30;;
3867;SDS011;1949;48.152;11.528;2023-03-01T06:12:53;30.33;;;13.30;;
3867;SDS011;1949;48.152;11.528;2023-03-01T06:15:19;32.33;;;12.90;;
3867;SDS011;1949;48.152;11.528;2023-03-01T06:17:45;33.20;;;14.27;;
3867;SDS011;1949;48.152;11.528;2023-03-01T06:22:44;33.87;;;14.73;;
3867;SDS011;1949;48.152;11.528;2023-03-01T06:25:15;34.53;;;13.80;;
3867;SDS011;1949;48.152;11.528;2023-03-01T06:27:43;41.27;;;14.27;;
3867;SDS011;1949;48.152;11.528;2023-03-01T06:30:12;50.60;;;17.50;;
3867;SDS011;1949;48.152;11.528;2023-03-01T06:32:41;53.07;;;19.80;;
3867;SDS011;1949;48.152;11.528;2023-03-01T06:35:07;55.27;;;21.20;;
3867;SDS011;1949;48.152;11.528;2023-03-01T06:37:37;45.77;;;18.77;;
3867;SDS011;1949;48.152;11.528;2023-03-01T06:40:04;53.53;;;22.20;;
3867;SDS011;1949;48.152;11.528;2023-03-01T06:42:36;39.00;;;17.57;;
3867;SDS011;1949;48.152;11.528;2023-03-01T06:45:06;58.13;;;20.60;;
3867;SDS011;1949;48.152;11.528;2023-03-01T06:47:33;42.73;;;15.67;;
3867;SDS011;1949;48.152;11.528;2023-03-01T06:50:02;62.87;;;21.90;;
3867;SDS011;1949;48.152;11.528;2023-03-01T06:52:29;41.13;;;17.77;;
3867;SDS011;1949;48.152;11.528;2023-03-01T06:54:58;55.73;;;19.83;;
3867;SDS011;1949;48.152;11.528;2023-03-01T06:57:24;43.03;;;16.57;;
3867;SDS011;1949;48.152;11.528;2023-03-01T06:59:50;45.00;;;18.23;;
3867;SDS011;1949;48.152;11.528;2023-03-01T07:02:17;62.40;;;24.30;;
3867;SDS011;1949;48.152;11.528;2023-03-01T07:04:45;65.40;;;23.27;;
3867;SDS011;1949;48.152;11.528;2023-03-01T07:07:11;50.53;;;19.90;;
3867;SDS011;1949;48.152;11.528;2023-03-01T07:09:37;41.43;;;17.67;;
3867;SDS011;1949;48.152;11.528;2023-03-01T07:12:03;46.50;;;17.80;;
3867;SDS011;1949;48.152;11.528;2023-03-01T07:14:31;41.73;;;18.23;;
3867;SDS011;1949;48.152;11.528;2023-03-01T07:16:58;36.67;;;15.40;;
3867;SDS011;1949;48.152;11.528;2023-03-01T07:19:25;35.73;;;15.57;;
3867;SDS011;1949;48.152;11.528;2023-03-01T07:21:51;44.63;;;19.30;;
3867;SDS011;1949;48.152;11.528;2023-03-01T07:24:22;33.03;;;15.40;;
3867;SDS011;1949;48.152;11.528;2023-03-01T07:26:48;36.97;;;15.97;;
3867;SDS011;1949;48.152;11.528;2023-03-01T07:29:15;36.93;;;14.77;;
3867;SDS011;1949;48.152;11.528;2023-03-01T07:31:42;36.47;;;16.40;;
3867;SDS011;1949;48.152;11.528;2023-03-01T07:34:08;35.27;;;15.63;;
3867;SDS011;1949;48.152;11.528;2023-03-01T07:36:34;33.50;;;15.20;;
3867;SDS011;1949;48.152;11.528;2023-03-01T07:39:02;31.50;;;14.13;;
3867;SDS011;1949;48.152;11.528;2023-03-01T07:41:28;46.40;;;17.20;;
3867;SDS011;1949;48.152;11.528;2023-03-01T07:43:55;37.03;;;16.07;;
3867;SDS011;1949;48.152;11.528;2023-03-01T07:46:21;50.20;;;20.10;;
3867;SDS011;1949;48.152;11.528;2023-03-01T07:48:48;52.80;;;20.60;;
3867;SDS011;1949;48.152;11.528;2023-03-01T07:51:14;49.27;;;20.43;;
3867;SDS011;1949;48.152;11.528;2023-03-01T07:53:40;40.67;;;17.17;;
3867;SDS011;1949;48.152;11.528;2023-03-01T07:56:10;36.60;;;14.77;;
3867;SDS011;1949;48.152;11.528;2023-03-01T07:58:40;31.07;;;13.10;;
3867;SDS011;1949;48.152;11.528;2023-03-01T08:01:08;42.80;;;16.90;;
3867;SDS011;1949;48.152;11.528;2023-03-01T08:03:40;57.10;;;22.10;;
3867;SDS011;1949;48.152;11.528;2023-03-01T08:06:18;56.33;;;19.50;;
3867;SDS011;1949;48.152;11.528;2023-03-01T08:08:44;49.23;;;18.93;;
3867;SDS011;1949;48.152;11.528;2023-03-01T08:11:11;42.13;;;16.80;;
3867;SDS011;1949;48.152;11.528;2023-03-01T08:13:38;42.03;;;18.17;;
3867;SDS011;1949;48.152;11.528;2023-03-01T08:16:07;43.33;;;15.80;;
3867;SDS011;1949;48.152;11.528;2023-03-01T08:18:42;52.67;;;21.57;;
3867;SDS011;1949;48.152;11.528;2023-03-01T08:21:11;52.80;;;21.17;;
3867;SDS011;1949;48.152;11.528;2023-03-01T08:23:40;30.50;;;12.97;;
3867;SDS011;1949;48.152;11.528;2023-03-01T08:26:12;36.97;;;15.17;;
3867;SDS011;1949;48.152;11.528;2023-03-01T08:28:38;50.07;;;18.60;;
3867;SDS011;1949;48.152;11.528;2023-03-01T08:34:03;29.47;;;13.23;;
3867;SDS011;1949;48.152;11.528;2023-03-01T08:36:33;27.20;;;12.37;;
3867;SDS011;1949;48.152;11.528;2023-03-01T08:39:05;23.53;;;11.10;;
3867;SDS011;1949;48.152;11.528;2023-03-01T08:41:33;30.13;;;13.37;;
3867;SDS011;1949;48.152;11.528;2023-03-01T08:43:59;29.03;;;13.43;;
3867;SDS011;1949;48.152;11.528;2023-03-01T08:46:32;27.63;;;12.07;;
3867;SDS011;1949;48.152;11.528;2023-03-01T08:49:03;37.27;;;14.20;;
3867;SDS011;1949;48.152;11.528;2023-03-01T08:51:30;37.00;;;14.40;;
3867;SDS011;1949;48.152;11.528;2023-03-01T08:54:01;33.23;;;14.47;;
3867;SDS011;1949;48.152;11.528;2023-03-01T08:56:31;32.50;;;13.27;;
3867;SDS011;1949;48.152;11.528;2023-03-01T09:01:26;35.60;;;14.47;;
3867;SDS011;1949;48.152;11.528;2023-03-01T09:03:51;35.07;;;14.43;;
3867;SDS011;1949;48.152;11.528;2023-03-01T09:06:17;35.03;;;15.40;;
3867;SDS011;1949;48.152;11.528;2023-03-01T09:08:44;44.10;;;17.07;;
3867;SDS011;1949;48.152;11.528;2023-03-01T09:11:13;34.70;;;15.47;;
3867;SDS011;1949;48.152;11.528;2023-03-01T09:13:41;37.40;;;15.60;;
3867;SDS011;1949;48.152;11.528;2023-03-01T09:16:08;36.23;;;15.20;;
3867;SDS011;1949;48.152;11.528;2023-03-01T09:18:34;45.27;;;18.10;;
3867;SDS011;1949;48.152;11.528;2023-03-01T09:21:11;36.60;;;15.30;;
3867;SDS011;1949;48.152;11.528;2023-03-01T09:23:41;32.90;;;13.83;;
3867;SDS011;1949;48.152;11.528;2023-03-01T09:26:09;34.13;;;13.97;;
3867;SDS011;1949;48.152;11.528;2023-03-01T09:28:55;53.57;;;18.80;;
3867;SDS011;1949;48.152;11.528;2023-03-01T09:31:22;47.13;;;17.40;;
3867;SDS011;1949;48.152;11.528;2023-03-01T09:33:50;46.20;;;17.40;;
3867;SDS011;1949;48.152;11.528;2023-03-01T09:36:20;32.03;;;13.67;;
3867;SDS011;1949;48.152;11.528;2023-03-01T09:38:48;36.70;;;14.70;;
3867;SDS011;1949;48.152;11.528;2023-03-01T09:44:13;32.90;;;13.80;;
3867;SDS011;1949;48.152;11.528;2023-03-01T09:46:42;47.10;;;17.53;;
3867;SDS011;1949;48.152;11.528;2023-03-01T09:49:21;32.47;;;14.60;;
3867;SDS011;1949;48.152;11.528;2023-03-01T09:54:37;33.50;;;13.40;;
3867;SDS011;1949;48.152;11.528;2023-03-01T10:00:09;38.43;;;14.63;;
3867;SDS011;1949;48.152;11.528;2023-03-01T10:02:52;39.70;;;12.90;;
3867;SDS011;1949;48.152;11.528;2023-03-01T10:05:41;39.30;;;14.70;;
3867;SDS011;1949;48.152;11.528;2023-03-01T10:10:56;34.87;;;16.37;;
3867;SDS011;1949;48.152;11.528;2023-03-01T10:15:56;27.10;;;11.03;;
3867;SDS011;1949;48.152;11.528;2023-03-01T10:18:27;24.70;;;10.77;;
3867;SDS011;1949;48.152;11.528;2023-03-01T10:21:02;35.03;;;14.20;;
3867;SDS011;1949;48.152;11.528;2023-03-01T10:23:35;27.47;;;11.20;;
3867;SDS011;1949;48.152;11.528;2023-03-01T10:26:07;28.60;;;11.27;;
3867;SDS011;1949;48.152;11.528;2023-03-01T10:31:50;22.83;;;10.43;;
3867;SDS011;1949;48.152;11.528;2023-03-01T10:37:09;21.43;;;9.80;;
3867;SDS011;1949;48.152;11.528;2023-03-01T10:39:56;27.07;;;10.77;;
3867;SDS011;1949;48.152;11.528;2023-03-01T10:42:30;24.07;;;10.67;;
3867;SDS011;1949;48.152;11.528;2023-03-01T10:45:02;33.73;;;10.77;;
3867;SDS011;1949;48.152;11.528;2023-03-01T10:47:40;24.43;;;10.53;;
3867;SDS011;1949;48.152;11.528;2023-03-01T10:50:09;25.27;;;10.20;;
3867;SDS011;1949;48.152;11.528;2023-03-01T10:52:58;20.73;;;9.50;;
3867;SDS011;1949;48.152;11.528;2023-03-01T10:55:35;27.67;;;11.50;;
3867;SDS011;1949;48.152;11.528;2023-03-01T11:00:50;25.97;;;11.27;;
3867;SDS011;1949;48.152;11.528;2023-03-01T11:03:28;26.23;;;9.40;;
3867;SDS011;1949;48.152;11.528;2023-03-01T11:08:32;22.70;;;10.70;;
3867;SDS011;1949;48.152;11.528;2023-03-01T11:11:20;22.53;;;11.13;;
3867;SDS011;1949;48.152;11.528;2023-03-01T11:13:52;23.60;;;9.70;;
3867;SDS011;1949;48.152;11.528;2023-03-01T11:16:27;25.77;;;10.80;;
3867;SDS011;1949;48.152;11.528;2023-03-01T11:19:04;23.30;;;9.80;;
3867;SDS011;1949;48.152;11.528;2023-03-01T11:22:12;23.77;;;10.23;;
3867;SDS011;1949;48.152;11.528;2023-03-01T11:27:34;29.10;;;11.20;;
3867;SDS011;1949;48.152;11.528;2023-03-01T11:30:07;22.17;;;11.40;;
3867;SDS011;1949;48.152;11.528;2023-03-01T11:32:55;26.10;;;11.37;;
3867;SDS011;1949;48.152;11.528;2023-03-01T11:36:02;25.23;;;11.67;;
3867;SDS011;1949;48.152;11.528;2023-03-01T11:38:42;26.13;;;10.07;;
3867;SDS011;1949;48.152;11.528;2023-03-01T11:41:31;26.70;;;11.80;;
3867;SDS011;1949;48.152;11.528;2023-03-01T11:49:40;23.87;;;10.63;;
3867;SDS011;1949;48.152;11.528;2023-03-01T12:09:38;42.70;;;15.20;;
3867;SDS011;1949;48.152;11.528;2023-03-01T12:20:51;33.63;;;15.03;;
3867;SDS011;1949;48.152;11.528;2023-03-01T12:26:16;24.73;;;11.90;;
3867;SDS011;1949;48.152;11.528;2023-03-01T12:35:05;35.17;;;14.50;;
3867;SDS011;1949;48.152;11.528;2023-03-01T12:37:44;32.93;;;14.50;;
3867;SDS011;1949;48.152;11.528;2023-03-01T12:40:26;31.30;;;14.40;;
3867;SDS011;1949;48.152;11.528;2023-03-01T12:43:02;34.10;;;14.57;;
3867;SDS011;1949;48.152;11.528;2023-03-01T12:45:55;37.03;;;15.87;;
3867;SDS011;1949;48.152;11.528;2023-03-01T12:48:37;37.30;;;15.90;;
3867;SDS011;1949;48.152;11.528;2023-03-01T12:51:19;37.33;;;15.40;;
3867;SDS011;1949;48.152;11.528;2023-03-01T12:53:54;30.20;;;14.97;;
3867;SDS011;1949;48.152;11.528;2023-03-01T12:59:03;34.53;;;16.20;;
3867;SDS011;1949;48.152;11.528;2023-03-01T13:01:40;40.37;;;17.93;;
3867;SDS011;1949;48.152;11.528;2023-03-01T13:09:40;30.77;;;14.67;;
3867;SDS011;1949;48.152;11.528;2023-03-01T13:15:31;35.50;;;16.50;;
3867;SDS011;1949;48.152;11.528;2023-03-01T13:18:03;30.47;;;15.70;;
3867;SDS011;1949;48.152;11.528;2023-03-01T13:20:54;37.93;;;16.10;;
3867;SDS011;1949;48.152;11.528;2023-03-01T13:28:39;42.00;;;17.40;;
3867;SDS011;1949;48.152;11.528;2023-03-01T13:33:50;45.63;;;15.63;;
3867;SDS011;1949;48.152;11.528;2023-03-01T13:42:28;37.63;;;17.47;;
3867;SDS011;1949;48.152;11.528;2023-03-01T13:47:44;26.00;;;13.70;;
3867;SDS011;1949;48.152;11.528;2023-03-01T13:50:24;30.27;;;14.73;;
3867;SDS011;1949;48.152;11.528;2023-03-01T13:52:54;31.50;;;15.47;;
3867;SDS011;1949;48.152;11.528;2023-03-01T14:04:22;29.60;;;15.10;;
3867;SDS011;1949;48.152;11.528;2023-03-01T14:09:52;31.73;;;14.70;;
3867;SDS011;1949;48.152;11.528;2023-03-01T14:12:44;34.87;;;15.60;;
3867;SDS011;1949;48.152;11.528;2023-03-01T14:21:07;26.70;;;14.30;;
3867;SDS011;1949;48.152;11.528;2023-03-01T14:23:34;33.27;;;15.07;;
3867;SDS011;1949;48.152;11.528;2023-03-01T14:26:12;30.07;;;14.33;;
3867;SDS011;1949;48.152;11.528;2023-03-01T14:28:37;25.43;;;13.40;;
3867;SDS011;1949;48.152;11.528;2023-03-01T14:34:16;36.83;;;15.67;;
3867;SDS011;1949;48.152;11.528;2023-03-01T14:36:49;33.13;;;15.53;;
3867;SDS011;1949;48.152;11.528;2023-03-01T14:39:16;29.47;;;14.33;;
3867;SDS011;1949;48.152;11.528;2023-03-01T14:41:49;27.90;;;12.87;;
3867;SDS011;1949;48.152;11.528;2023-03-01T14:44:18;25.40;;;12.30;;
3867;SDS011;1949;48.152;11.528;2023-03-01T14:46:51;27.90;;;13.40;;
3867;SDS011;1949;48.152;11.528;2023-03-01T14:49:25;26.30;;;12.10;;
3867;SDS011;1949;48.152;11.528;2023-03-01T14:51:59;25.27;;;12.37;;
3867;SDS011;1949;48.152;11.528;2023-03-01T14:54:43;25.17;;;12.53;;
3867;SDS011;1949;48.152;11.528;2023-03-01T14:57:19;27.73;;;12.83;;
3867;SDS011;1949;48.152;11.528;2023-03-01T14:59:51;26.93;;;12.17;;
3867;SDS011;1949;48.152;11.528;2023-03-01T15:02:26;20.63;;;11.40;;
3867;SDS011;1949;48.152;11.528;2023-03-01T15:05:01;21.40;;;11.40;;
3867;SDS011;1949;48.152;11.528;2023-03-01T15:07:31;22.80;;;11.60;;
3867;SDS011;1949;48.152;11.528;2023-03-01T15:10:01;23.17;;;12.07;;
3867;SDS011;1949;48.152;11.528;2023-03-01T15:12:37;28.90;;;11.77;;
3867;SDS011;1949;48.152;11.528;2023-03-01T15:15:47;24.10;;;12.53;;
3867;SDS011;1949;48.152;11.528;2023-03-01T15:17:59;23.30;;;11.70;;
3867;SDS011;1949;48.152;11.528;2023-03-01T15:20:30;27.80;;;13.47;;
3867;SDS011;1949;48.152;11.528;2023-03-01T15:23:01;24.03;;;12.20;;
3867;SDS011;1949;48.152;11.528;2023-03-01T15:25:29;25.07;;;12.80;;
3867;SDS011;1949;48.152;11.528;2023-03-01T15:27:56;26.60;;;13.03;;
3867;SDS011;1949;48.152;11.528;2023-03-01T15:30:31;30.90;;;14.77;;
3867;SDS011;1949;48.152;11.528;2023-03-01T15:35:55;18.93;;;10.03;;
3867;SDS011;1949;48.152;11.528;2023-03-01T15:38:26;21.00;;;10.30;;
3867;SDS011;1949;48.152;11.528;2023-03-01T15:40:55;21.33;;;10.40;;
3867;SDS011;1949;48.152;11.528;2023-03-01T15:43:42;29.77;;;12.40;;
3867;SDS011;1949;48.152;11.528;2023-03-01T15:46:17;31.83;;;11.47;;
3867;SDS011;1949;48.152;11.528;2023-03-01T15:49:18;24.67;;;11.10;;
3867;SDS011;1949;48.152;11.528;2023-03-01T15:51:53;29.70;;;11.17;;
3867;SDS011;1949;48.152;11.528;2023-03-01T15:54:21;17.57;;;9.67;;
3867;SDS011;1949;48.152;11.528;2023-03-01T15:56:50;22.03;;;10.80;;
3867;SDS011;1949;48.152;11.528;2023-03-01T15:59:17;22.47;;;9.60;;
3867;SDS011;1949;48.152;11.528;2023-03-01T16:01:44;25.33;;;9.67;;
3867;SDS011;1949;48.152;11.528;2023-03-01T16:04:11;42.27;;;10.60;;
3867;SDS011;1949;48.152;11.528;2023-03-01T16:06:42;29.07;;;12.87;;
3867;SDS011;1949;48.152;11.528;2023-03-01T16:09:07;26.47;;;11.93;;
3867;SDS011;1949;48.152;11.528;2023-03-01T16:11:35;26.63;;;10.87;;
3867;SDS011;1949;48.152;11.528;2023-03-01T16:14:02;23.83;;;11.00;;
3867;SDS011;1949;48.152;11.528;2023-03-01T16:16:28;28.60;;;12.23;;
3867;SDS011;1949;48.152;11.528;2023-03-01T16:18:58;20.50;;;10.13;;
3867;SDS011;1949;48.152;11.528;2023-03-01T16:21:24;24.47;;;12.07;;
3867;SDS011;1949;48.152;11.528;2023-03-01T16:23:52;21.57;;;11.67;;
3867;SDS011;1949;48.152;11.528;2023-03-01T16:26:19;21.93;;;10.90;;
3867;SDS011;1949;48.152;11.528;2023-03-01T16:28:56;26.97;;;10.77;;
3867;SDS011;1949;48.152;11.528;2023-03-01T16:31:23;25.50;;;11.13;;
3867;SDS011;1949;48.152;11.528;2023-03-01T16:33:55;25.50;;;12.03;;
3867;SDS011;1949;48.152;11.528;2023-03-01T16:36:22;25.23;;;11.83;;
3867;SDS011;1949;48.152;11.528;2023-03-01T16:38:51;31.17;;;13.80;;
3867;SDS011;1949;48.152;11.528;2023-03-01T16:41:23;47.17;;;18.63;;
3867;SDS011;1949;48.152;11.528;2023-03-01T16:43:55;33.93;;;13.73;;
3867;SDS011;1949;48.152;11.528;2023-03-01T16:46:32;35.60;;;12.20;;
3867;SDS011;1949;48.152;11.528;2023-03-01T16:48:59;28.30;;;12.00;;
3867;SDS011;1949;48.152;11.528;2023-03-01T16:51:26;30.80;;;12.30;;
3867;SDS011;1949;48.152;11.528;2023-03-01T16:53:54;28.57;;;12.13;;
3867;SDS011;1949;48.152;11.528;2023-03-01T16:56:19;30.37;;;12.80;;
3867;SDS011;1949;48.152;11.528;2023-03-01T16:58:47;33.67;;;13.33;;
3867;SDS011;1949;48.152;11.528;2023-03-01T17:01:21;36.83;;;16.10;;
3867;SDS011;1949;48.152;11.528;2023-03-01T17:06:20;49.33;;;18.50;;
3867;SDS011;1949;48.152;11.528;2023-03-01T17:08:47;37.53;;;16.30;;
3867;SDS011;1949;48.152;11.528;2023-03-01T17:11:17;34.03;;;15.40;;
3867;SDS011;1949;48.152;11.528;2023-03-01T17:13:44;35.03;;;13.37;;
3867;SDS011;1949;48.152;11.528;2023-03-01T17:16:13;25.43;;;10.80;;
3867;SDS011;1949;48.152;11.528;2023-03-01T17:18:41;33.00;;;14.40;;
3867;SDS011;1949;48.152;11.528;2023-03-01T17:21:07;35.70;;;13.23;;
3867;SDS011;1949;48.152;11.528;2023-03-01T17:23:37;43.10;;;18.00;;
3867;SDS011;1949;48.152;11.528;2023-03-01T17:26:08;39.70;;;14.17;;
3867;SDS011;1949;48.152;11.528;2023-03-01T17:28:35;28.37;;;12.57;;
3867;SDS011;1949;48.152;11.528;2023-03-01T17:31:02;33.47;;;14.60;;
3867;SDS011;1949;48.152;11.528;2023-03-01T17:33:29;48.40;;;13.53;;
3867;SDS011;1949;48.152;11.528;2023-03-01T17:35:59;40.93;;;17.60;;
3867;SDS011;1949;48.152;11.528;2023-03-01T17:38:28;31.93;;;12.57;;
3867;SDS011;1949;48.152;11.528;2023-03-01T17:40:53;19.47;;;9.30;;
3867;SDS011;1949;48.152;11.528;2023-03-01T17:43:20;27.33;;;11.10;;
3867;SDS011;1949;48.152;11.528;2023-03-01T17:51:08;36.40;;;12.10;;
3867;SDS011;1949;48.152;11.528;2023-03-01T17:53:36;24.77;;;11.57;;